Time;durP1;ratioP1;P1;durP2;ratioP2;P2;SDS_P1;SDS_P2;PMS_P1;PMS_P2;Temp;Humidity;BMP_temperature;BMP_pressure;BME280_temperature;BME280_humidity;BME280_pressure;Samples;Min_cycle;Max_cycle;Signal;HPM_P1;HPM_P2
2023/06/17 00:01:06;;;;;;;7.43;4.13;;;15.80;93.80;;;;;;5030681;28;20038;-67
2023/06/17 00:03:31;;;;;;;11.27;4.68;;;15.70;94.80;;;;;;5024955;28;20060;-68
2023/06/17 00:05:57;;;;;;;6.68;3.78;;;15.60;95.50;;;;;;5033022;28;20478;-67
2023/06/17 00:08:22;;;;;;;8.23;3.95;;;15.50;96.50;;;;;;5021703;28;20040;-67
2023/06/17 00:10:48;;;;;;;8.32;3.67;;;15.50;97.20;;;;;;5017579;28;20101;-67
2023/06/17 00:13:19;;;;;;;6.25;3.50;;;15.40;97.90;;;;;;5021720;28;20029;-67
2023/06/17 00:15:47;;;;;;;5.45;3.47;;;15.40;98.60;;;;;;5022204;28;20029;-67
2023/06/17 00:18:13;;;;;;;8.25;4.00;;;15.30;99.30;;;;;;5007890;28;20175;-66
2023/06/17 00:20:39;;;;;;;5.93;3.33;;;15.20;99.80;;;;;;5018297;28;20092;-67
2023/06/17 00:23:04;;;;;;;5.88;3.60;;;15.20;99.90;;;;;;5026199;28;20431;-67
2023/06/17 00:25:30;;;;;;;7.13;3.22;;;15.10;99.90;;;;;;5023687;28;20025;-67
2023/06/17 00:27:55;;;;;;;8.15;4.05;;;15.00;99.90;;;;;;5019822;28;20101;-67
2023/06/17 00:30:21;;;;;;;13.07;4.35;;;15.00;99.90;;;;;;5024424;28;20026;-66
2023/06/17 00:32:46;;;;;;;6.22;3.90;;;15.00;99.90;;;;;;5025368;28;20108;-66
2023/06/17 00:35:12;;;;;;;7.65;4.05;;;14.90;99.90;;;;;;5023694;28;20041;-66
2023/06/17 00:37:38;;;;;;;6.47;3.70;;;14.90;99.90;;;;;;5027319;28;20032;-67
2023/06/17 00:40:07;;;;;;;7.65;3.88;;;14.90;99.90;;;;;;5027588;28;20033;-66
2023/06/17 00:42:34;;;;;;;7.60;4.10;;;14.90;99.90;;;;;;5029070;28;20037;-67
2023/06/17 00:44:59;;;;;;;6.00;4.05;;;14.80;99.90;;;;;;5030086;28;20021;-67
2023/06/17 00:47:25;;;;;;;6.78;4.22;;;14.80;99.90;;;;;;5024783;28;20070;-67
2023/06/17 00:49:53;;;;;;;6.05;4.10;;;14.80;99.90;;;;;;5018619;28;20479;-67
2023/06/17 00:52:20;;;;;;;14.98;4.13;;;14.70;99.90;;;;;;5024268;28;20652;-67
2023/06/17 00:54:45;;;;;;;7.05;4.00;;;14.70;99.90;;;;;;5028059;28;20036;-67
2023/06/17 00:57:14;;;;;;;7.05;4.60;;;14.70;99.90;;;;;;5027917;28;20030;-67
2023/06/17 00:59:42;;;;;;;8.65;4.60;;;14.70;99.90;;;;;;5028528;28;20487;-67
2023/06/17 01:02:09;;;;;;;7.40;3.83;;;14.60;99.90;;;;;;5025775;28;20521;-67
2023/06/17 01:04:42;;;;;;;8.35;3.95;;;14.60;99.90;;;;;;5027103;28;20051;-68
2023/06/17 01:07:35;;;;;;;6.45;3.60;;;14.60;99.90;;;;;;5032989;28;20360;-67
2023/06/17 01:10:29;;;;;;;10.10;4.20;;;14.50;99.90;;;;;;5018465;28;20061;-68
2023/06/17 01:12:57;;;;;;;8.82;4.45;;;14.50;99.90;;;;;;5020007;28;20095;-68
2023/06/17 01:15:23;;;;;;;5.60;3.45;;;14.40;99.90;;;;;;5030510;28;20105;-67
2023/06/17 01:17:54;;;;;;;5.70;3.80;;;14.40;99.90;;;;;;5012969;28;20407;-67
2023/06/17 01:20:20;;;;;;;8.40;4.40;;;14.30;99.90;;;;;;5010885;28;20038;-68
2023/06/17 01:22:48;;;;;;;6.30;3.60;;;14.30;99.90;;;;;;5014105;28;20048;-67
2023/06/17 01:25:14;;;;;;;6.88;4.10;;;14.30;99.90;;;;;;5021718;28;20025;-67
2023/06/17 01:27:41;;;;;;;7.28;4.38;;;14.20;99.90;;;;;;5021097;28;20518;-68
2023/06/17 01:30:08;;;;;;;10.43;4.25;;;14.20;99.90;;;;;;5023666;28;20018;-68
2023/06/17 01:32:33;;;;;;;7.25;4.32;;;14.20;99.90;;;;;;5024131;28;20037;-67
2023/06/17 01:35:11;;;;;;;6.97;4.00;;;14.10;99.90;;;;;;5027622;28;20431;-67
2023/06/17 01:37:43;;;;;;;6.15;4.22;;;14.10;99.90;;;;;;5021585;28;20026;-68
2023/06/17 01:40:13;;;;;;;6.70;4.07;;;14.10;99.90;;;;;;5018189;28;20049;-67
2023/06/17 01:42:44;;;;;;;9.52;4.72;;;14.10;99.90;;;;;;5026307;28;20847;-68
2023/06/17 01:45:11;;;;;;;8.35;3.78;;;14.00;99.90;;;;;;5024479;28;20057;-67
2023/06/17 01:47:37;;;;;;;5.95;4.22;;;14.00;99.90;;;;;;5027599;28;20036;-68
2023/06/17 01:50:05;;;;;;;8.57;3.67;;;14.00;99.90;;;;;;5026581;28;20037;-67
2023/06/17 01:52:30;;;;;;;7.75;4.57;;;13.90;99.90;;;;;;5020885;28;20039;-68
2023/06/17 01:54:56;;;;;;;6.40;4.20;;;13.90;99.90;;;;;;5023072;28;20399;-68
2023/06/17 01:57:22;;;;;;;5.85;3.60;;;13.90;99.90;;;;;;5028678;28;20071;-67
2023/06/17 01:59:48;;;;;;;6.47;4.07;;;13.90;99.90;;;;;;5025071;28;20504;-68
2023/06/17 02:02:14;;;;;;;5.70;3.58;;;13.90;99.90;;;;;;5024482;28;20037;-67
2023/06/17 02:04:39;;;;;;;7.38;4.25;;;13.80;99.90;;;;;;5022707;28;20032;-68
2023/06/17 02:07:05;;;;;;;6.75;4.25;;;13.70;99.90;;;;;;5023997;28;20017;-67
2023/06/17 02:09:31;;;;;;;5.32;3.42;;;13.70;99.90;;;;;;5030953;28;20014;-68
2023/06/17 02:11:57;;;;;;;6.35;3.67;;;13.70;99.90;;;;;;5029606;28;20041;-66
2023/06/17 02:14:23;;;;;;;6.90;4.15;;;13.70;99.90;;;;;;5023252;28;20034;-67
2023/06/17 02:16:49;;;;;;;6.20;3.78;;;13.70;99.90;;;;;;5018603;28;20041;-67
2023/06/17 02:19:15;;;;;;;7.18;4.15;;;13.60;99.90;;;;;;5027434;28;20044;-67
2023/06/17 02:21:42;;;;;;;9.10;4.18;;;13.60;99.90;;;;;;5019181;28;20021;-68
2023/06/17 02:24:09;;;;;;;7.45;3.97;;;13.60;99.90;;;;;;5018795;28;20034;-67
2023/06/17 02:26:34;;;;;;;7.00;4.07;;;13.60;99.90;;;;;;5012761;28;20029;-68
2023/06/17 02:29:00;;;;;;;9.10;4.22;;;13.50;99.90;;;;;;5014044;28;20053;-67
2023/06/17 02:31:29;;;;;;;8.43;3.97;;;13.50;99.90;;;;;;5016744;28;20045;-67
2023/06/17 02:33:55;;;;;;;5.25;3.50;;;13.50;99.90;;;;;;5014985;28;20022;-68
2023/06/17 02:36:21;;;;;;;6.32;4.07;;;13.50;99.90;;;;;;5008658;28;20038;-67
2023/06/17 02:38:47;;;;;;;6.32;3.78;;;13.50;99.90;;;;;;5021544;28;20090;-67
2023/06/17 02:41:13;;;;;;;5.30;3.50;;;13.60;99.90;;;;;;5025012;28;20025;-67
2023/06/17 02:43:39;;;;;;;7.68;4.20;;;13.60;99.90;;;;;;5025738;28;20439;-67
2023/06/17 02:46:04;;;;;;;6.13;4.13;;;13.60;99.90;;;;;;5026426;28;20021;-67
2023/06/17 02:48:30;;;;;;;10.50;4.72;;;13.50;99.90;;;;;;5027699;28;20029;-67
2023/06/17 02:50:55;;;;;;;10.70;4.80;;;13.40;99.90;;;;;;5021729;28;20396;-66
2023/06/17 02:53:22;;;;;;;13.52;4.68;;;13.30;99.90;;;;;;5024766;28;20072;-67
2023/06/17 02:55:48;;;;;;;7.25;4.57;;;13.30;99.90;;;;;;5021913;28;20033;-68
2023/06/17 02:58:15;;;;;;;8.43;5.43;;;13.20;99.90;;;;;;5025701;28;20022;-68
2023/06/17 03:00:42;;;;;;;8.98;4.50;;;13.20;99.90;;;;;;5024974;28;20017;-67
2023/06/17 03:03:11;;;;;;;7.40;4.25;;;13.10;99.90;;;;;;5029342;28;20103;-68
2023/06/17 03:05:41;;;;;;;7.65;4.93;;;13.00;99.90;;;;;;5023290;28;20125;-67
2023/06/17 03:08:07;;;;;;;8.10;5.10;;;13.00;99.90;;;;;;5022984;28;20025;-67
2023/06/17 03:10:34;;;;;;;8.05;4.80;;;13.00;99.90;;;;;;5025985;28;20029;-68
2023/06/17 03:13:00;;;;;;;10.10;5.40;;;13.00;99.90;;;;;;5021851;28;20029;-68
2023/06/17 03:15:26;;;;;;;7.53;4.82;;;12.90;99.90;;;;;;5024398;28;20029;-68
2023/06/17 03:17:52;;;;;;;10.85;4.82;;;12.90;99.90;;;;;;5023042;28;20037;-68
2023/06/17 03:20:18;;;;;;;9.38;5.20;;;12.90;99.90;;;;;;5011541;28;20034;-67
2023/06/17 03:22:44;;;;;;;20.67;5.30;;;12.90;99.90;;;;;;5018627;28;20034;-68
2023/06/17 03:25:10;;;;;;;6.03;4.22;;;12.80;99.90;;;;;;5026322;28;20402;-67
2023/06/17 03:27:36;;;;;;;9.48;4.10;;;12.90;99.90;;;;;;5023250;28;20529;-68
2023/06/17 03:30:03;;;;;;;6.63;4.38;;;12.90;99.90;;;;;;5019812;28;20025;-68
2023/06/17 03:32:28;;;;;;;8.20;4.60;;;12.90;99.90;;;;;;5018741;28;20087;-67
2023/06/17 03:34:54;;;;;;;5.72;4.03;;;12.90;99.90;;;;;;5015641;28;20037;-67
2023/06/17 03:37:20;;;;;;;6.80;4.03;;;12.90;99.90;;;;;;5020115;28;20504;-67
2023/06/17 03:39:46;;;;;;;6.05;3.88;;;13.00;99.90;;;;;;5024232;28;20033;-68
2023/06/17 03:42:16;;;;;;;8.13;4.78;;;13.00;99.90;;;;;;5022695;28;20034;-67
2023/06/17 03:44:42;;;;;;;8.95;4.75;;;13.00;99.90;;;;;;5021176;28;20041;-68
2023/06/17 03:47:07;;;;;;;7.93;4.05;;;13.00;99.90;;;;;;5024352;28;20034;-67
2023/06/17 03:49:33;;;;;;;6.82;4.15;;;13.00;99.90;;;;;;5020378;28;20061;-68
2023/06/17 03:51:58;;;;;;;6.45;4.38;;;12.90;99.90;;;;;;5020554;28;20026;-65
2023/06/17 03:54:25;;;;;;;9.88;4.15;;;13.00;99.90;;;;;;5017833;28;20045;-67
2023/06/17 03:56:50;;;;;;;10.15;5.38;;;13.10;99.90;;;;;;5019727;28;20036;-67
2023/06/17 03:59:16;;;;;;;7.53;4.10;;;13.10;99.90;;;;;;5022191;28;20422;-67
2023/06/17 04:01:42;;;;;;;10.20;4.70;;;13.20;99.90;;;;;;5021775;28;20029;-67
2023/06/17 04:04:08;;;;;;;7.40;4.57;;;13.20;99.90;;;;;;5024830;28;20017;-68
2023/06/17 04:06:35;;;;;;;5.85;3.75;;;13.30;99.90;;;;;;5029951;28;20103;-67
2023/06/17 04:09:01;;;;;;;6.32;4.10;;;13.40;99.90;;;;;;5026967;28;20083;-67
2023/06/17 04:11:29;;;;;;;7.30;4.38;;;13.50;99.90;;;;;;5018589;28;20480;-68
2023/06/17 04:13:55;;;;;;;8.68;4.32;;;13.40;99.90;;;;;;5010350;28;20029;-67
2023/06/17 04:16:21;;;;;;;13.38;4.55;;;13.40;99.90;;;;;;5011737;28;20033;-67
2023/06/17 04:18:47;;;;;;;8.02;4.80;;;13.40;99.90;;;;;;5014179;28;20029;-67
2023/06/17 04:21:12;;;;;;;6.50;4.35;;;13.40;99.90;;;;;;5016082;28;20033;-68
2023/06/17 04:23:38;;;;;;;6.20;4.28;;;13.50;99.90;;;;;;5013392;28;20057;-68
2023/06/17 04:26:03;;;;;;;8.23;4.65;;;13.50;99.90;;;;;;5015080;28;20030;-68
2023/06/17 04:28:32;;;;;;;9.27;4.65;;;13.60;99.90;;;;;;5011533;28;20054;-67
2023/06/17 04:31:01;;;;;;;8.05;4.78;;;13.80;99.90;;;;;;5017048;28;20030;-68
2023/06/17 04:33:30;;;;;;;10.52;4.97;;;13.90;99.90;;;;;;5011316;28;20033;-68
2023/06/17 04:35:57;;;;;;;9.13;4.93;;;14.40;99.90;;;;;;5010864;28;20034;-67
2023/06/17 04:38:23;;;;;;;6.22;4.32;;;15.40;99.90;;;;;;5015696;28;20102;-67
2023/06/17 04:40:52;;;;;;;6.80;4.88;;;16.50;99.90;;;;;;5015494;28;20033;-67
2023/06/17 04:43:20;;;;;;;8.63;4.40;;;17.50;98.90;;;;;;5022413;28;20025;-67
2023/06/17 04:45:46;;;;;;;7.85;4.88;;;18.20;97.10;;;;;;5026694;28;20643;-68
2023/06/17 04:48:11;;;;;;;6.40;4.88;;;19.00;94.90;;;;;;5026405;28;20041;-68
2023/06/17 04:50:37;;;;;;;8.20;4.70;;;20.00;92.50;;;;;;5021291;28;20033;-68
2023/06/17 04:53:05;;;;;;;7.95;3.88;;;20.80;90.40;;;;;;5023008;28;20049;-68
2023/06/17 04:55:35;;;;;;;9.90;3.95;;;21.40;86.10;;;;;;5014189;28;20388;-67
2023/06/17 04:58:03;;;;;;;5.65;3.78;;;22.20;81.80;;;;;;5024914;28;20033;-65
2023/06/17 05:00:30;;;;;;;5.43;3.95;;;22.70;77.30;;;;;;5027186;28;20032;-68
2023/06/17 05:02:56;;;;;;;6.60;4.00;;;23.40;76.30;;;;;;5018959;28;20029;-68
2023/06/17 05:05:22;;;;;;;5.00;3.75;;;23.70;74.40;;;;;;5023536;28;20038;-68
2023/06/17 05:07:48;;;;;;;4.70;3.80;;;24.20;72.90;;;;;;5025143;28;20364;-66
2023/06/17 05:10:14;;;;;;;6.55;4.07;;;24.20;72.10;;;;;;5020050;28;20487;-68
2023/06/17 05:12:41;;;;;;;5.38;3.60;;;24.40;71.70;;;;;;5023048;28;20060;-68
2023/06/17 05:15:07;;;;;;;6.07;4.10;;;24.80;70.00;;;;;;5026287;28;20029;-69
2023/06/17 05:17:33;;;;;;;4.68;3.70;;;24.90;70.50;;;;;;5031360;28;20036;-68
2023/06/17 05:19:58;;;;;;;5.68;4.00;;;25.30;70.30;;;;;;5026879;28;20029;-67
2023/06/17 05:22:24;;;;;;;5.35;4.35;;;25.50;69.00;;;;;;5022552;28;20100;-68
2023/06/17 05:24:49;;;;;;;5.63;3.67;;;26.10;68.50;;;;;;5025485;28;20083;-67
2023/06/17 05:27:16;;;;;;;4.57;3.60;;;26.40;68.90;;;;;;5021290;28;20385;-67
2023/06/17 05:29:42;;;;;;;6.03;4.00;;;26.30;67.70;;;;;;5023472;28;20033;-66
2023/06/17 05:32:07;;;;;;;5.53;4.00;;;26.10;67.90;;;;;;5024858;28;20030;-68
2023/06/17 05:34:33;;;;;;;3.92;3.53;;;26.10;66.70;;;;;;5022406;28;20037;-68
2023/06/17 05:36:59;;;;;;;11.30;4.32;;;26.50;67.50;;;;;;5024605;28;20030;-68
2023/06/17 05:39:25;;;;;;;4.43;3.30;;;27.20;66.20;;;;;;5023287;28;20026;-68
2023/06/17 05:41:50;;;;;;;8.35;4.05;;;27.40;65.50;;;;;;5026286;28;20032;-67
2023/06/17 05:44:16;;;;;;;5.25;3.70;;;27.40;66.30;;;;;;5018555;28;20112;-68
2023/06/17 05:46:42;;;;;;;6.07;3.70;;;27.70;64.40;;;;;;5029471;28;20033;-66
2023/06/17 05:49:07;;;;;;;17.77;4.07;;;28.00;64.30;;;;;;5021470;28;20038;-66
2023/06/17 05:51:33;;;;;;;10.25;3.85;;;28.10;64.60;;;;;;5032164;28;20422;-66
2023/06/17 05:53:58;;;;;;;9.77;4.05;;;28.10;63.20;;;;;;5028085;28;20026;-66
2023/06/17 05:56:24;;;;;;;7.15;4.00;;;28.00;62.90;;;;;;5027217;28;20169;-67
2023/06/17 05:58:50;;;;;;;9.98;4.03;;;28.40;62.40;;;;;;5016508;28;20068;-66
2023/06/17 06:01:16;;;;;;;6.75;4.53;;;29.50;60.40;;;;;;5025554;28;20044;-67
2023/06/17 06:03:42;;;;;;;4.93;3.70;;;31.10;58.20;;;;;;5028574;28;20075;-67
2023/06/17 06:06:07;;;;;;;16.60;4.40;;;31.00;58.40;;;;;;5025687;28;20030;-67
2023/06/17 06:08:33;;;;;;;4.85;3.80;;;31.30;57.70;;;;;;5036993;28;20459;-67
2023/06/17 06:10:59;;;;;;;5.10;3.97;;;31.30;58.70;;;;;;5026511;28;20033;-68
2023/06/17 06:13:25;;;;;;;12.80;4.15;;;30.70;56.40;;;;;;5021459;28;20036;-67
2023/06/17 06:15:50;;;;;;;8.38;4.30;;;29.80;57.50;;;;;;5026911;28;20037;-67
2023/06/17 06:18:16;;;;;;;6.22;4.18;;;30.00;58.70;;;;;;5025552;28;20037;-67
2023/06/17 06:20:41;;;;;;;6.20;4.18;;;30.10;60.30;;;;;;5027685;28;20076;-67
2023/06/17 06:23:09;;;;;;;9.75;4.55;;;31.80;57.40;;;;;;5029597;28;20021;-67
2023/06/17 06:25:34;;;;;;;8.13;4.80;;;31.10;57.20;;;;;;5024261;28;20021;-67
2023/06/17 06:28:00;;;;;;;6.00;3.95;;;31.80;56.60;;;;;;5021033;28;20545;-67
2023/06/17 06:30:26;;;;;;;5.25;4.30;;;31.20;57.50;;;;;;5020530;28;20060;-67
2023/06/17 06:32:51;;;;;;;10.23;4.13;;;31.50;56.40;;;;;;5028317;28;20399;-67
2023/06/17 06:35:17;;;;;;;10.88;4.43;;;32.70;55.60;;;;;;5024216;28;20052;-68
2023/06/17 06:37:42;;;;;;;4.47;3.97;;;32.90;56.30;;;;;;5031041;28;20025;-67
2023/06/17 06:40:09;;;;;;;7.65;3.90;;;32.90;55.30;;;;;;5023943;28;20030;-67
2023/06/17 06:42:35;;;;;;;7.13;3.55;;;32.30;55.00;;;;;;5027630;28;20018;-67
2023/06/17 06:45:01;;;;;;;5.65;3.70;;;33.20;55.20;;;;;;5026469;28;20029;-67
2023/06/17 06:47:28;;;;;;;12.82;4.50;;;34.20;54.20;;;;;;5028252;28;20407;-67
2023/06/17 06:49:53;;;;;;;5.20;4.30;;;34.70;53.00;;;;;;5028248;28;20104;-68
2023/06/17 06:52:19;;;;;;;5.55;4.10;;;34.50;53.30;;;;;;5025030;28;20030;-67
2023/06/17 06:54:45;;;;;;;5.68;4.15;;;33.30;53.80;;;;;;5023676;28;20068;-68
2023/06/17 06:57:10;;;;;;;7.25;4.30;;;31.90;54.80;;;;;;5025855;28;20037;-67
2023/06/17 06:59:36;;;;;;;5.57;4.80;;;31.50;55.60;;;;;;5012264;28;20037;-67
2023/06/17 07:02:01;;;;;;;6.93;4.68;;;32.50;54.90;;;;;;5026922;28;20715;-67
2023/06/17 07:04:27;;;;;;;7.07;4.20;;;31.80;55.90;;;;;;5024319;28;20125;-67
2023/06/17 07:06:53;;;;;;;5.78;3.95;;;33.00;56.00;;;;;;5027776;28;20025;-67
2023/06/17 07:09:18;;;;;;;9.05;4.13;;;34.20;54.80;;;;;;5020312;28;20040;-67
2023/06/17 07:11:44;;;;;;;7.60;4.40;;;35.30;53.50;;;;;;5024173;28;20104;-67
2023/06/17 07:14:11;;;;;;;8.93;5.00;;;35.30;52.20;;;;;;5024656;28;20100;-67
2023/06/17 07:16:37;;;;;;;9.65;4.43;;;34.30;53.20;;;;;;5023150;28;20045;-67
2023/06/17 07:19:03;;;;;;;5.93;3.85;;;34.10;52.20;;;;;;5023647;28;20602;-67
2023/06/17 07:21:29;;;;;;;5.70;4.10;;;33.30;54.30;;;;;;5026419;28;20025;-68
2023/06/17 07:23:54;;;;;;;5.20;4.18;;;33.80;54.00;;;;;;5023305;28;20059;-67
2023/06/17 07:26:20;;;;;;;6.78;3.92;;;33.30;54.40;;;;;;5028238;28;20018;-68
2023/06/17 07:28:46;;;;;;;9.10;4.35;;;34.20;54.10;;;;;;5024494;28;20029;-67
2023/06/17 07:31:12;;;;;;;4.53;3.88;;;35.20;53.10;;;;;;5028711;28;20105;-68
2023/06/17 07:33:39;;;;;;;8.20;4.60;;;34.70;53.10;;;;;;5021105;28;20036;-68
2023/06/17 07:36:05;;;;;;;4.22;3.80;;;33.40;53.90;;;;;;5027615;28;20028;-67
2023/06/17 07:38:33;;;;;;;5.63;4.30;;;34.40;54.50;;;;;;5027279;28;20029;-68
2023/06/17 07:40:59;;;;;;;12.15;4.05;;;34.50;53.10;;;;;;5027071;28;20043;-68
2023/06/17 07:43:25;;;;;;;7.13;4.20;;;33.60;54.10;;;;;;5021174;28;20073;-67
2023/06/17 07:45:50;;;;;;;5.57;3.95;;;34.70;53.80;;;;;;5028153;28;20030;-67
2023/06/17 07:48:16;;;;;;;4.88;4.00;;;35.20;52.90;;;;;;5015064;28;20475;-68
2023/06/17 07:50:42;;;;;;;5.88;4.45;;;35.80;52.80;;;;;;5023818;28;20133;-67
2023/06/17 07:53:08;;;;;;;7.53;4.43;;;34.50;52.80;;;;;;5020647;28;21792;-68
2023/06/17 07:55:33;;;;;;;9.15;3.80;;;34.90;53.70;;;;;;5033618;28;20036;-68
2023/06/17 07:58:00;;;;;;;8.30;3.92;;;35.40;54.40;;;;;;5022437;28;20055;-68
2023/06/17 08:00:27;;;;;;;6.60;4.25;;;34.80;53.60;;;;;;5023577;28;20044;-67
2023/06/17 08:02:53;;;;;;;4.68;3.50;;;35.50;52.10;;;;;;5022858;28;20029;-68
2023/06/17 08:05:19;;;;;;;8.32;3.53;;;34.50;52.90;;;;;;5013233;28;20068;-68
2023/06/17 08:07:45;;;;;;;4.32;3.92;;;35.00;53.80;;;;;;5030905;28;20479;-68
2023/06/17 08:10:11;;;;;;;4.95;4.00;;;36.50;52.70;;;;;;5031269;28;20498;-68
2023/06/17 08:12:36;;;;;;;4.25;3.65;;;36.50;51.40;;;;;;5031069;28;20029;-66
2023/06/17 08:15:02;;;;;;;4.47;3.60;;;35.40;52.20;;;;;;5028382;28;20056;-68
2023/06/17 08:17:28;;;;;;;4.15;3.58;;;36.70;51.20;;;;;;5027521;28;20148;-67
2023/06/17 08:19:53;;;;;;;5.00;3.38;;;36.70;49.90;;;;;;5031438;28;20486;-68
2023/06/17 08:22:20;;;;;;;4.55;3.20;;;36.70;50.50;;;;;;5028645;28;20433;-67
2023/06/17 08:24:45;;;;;;;5.15;2.78;;;37.30;50.80;;;;;;5031030;28;20026;-67
2023/06/17 08:27:12;;;;;;;3.63;2.97;;;35.80;49.50;;;;;;5029860;28;20467;-68
2023/06/17 08:29:37;;;;;;;4.25;3.17;;;35.50;51.40;;;;;;5024640;28;20032;-69
2023/06/17 08:32:03;;;;;;;5.18;2.88;;;35.60;50.30;;;;;;5028093;28;20021;-67
2023/06/17 08:34:31;;;;;;;3.78;2.85;;;35.80;48.20;;;;;;5030546;28;20167;-68
2023/06/17 08:37:01;;;;;;;5.68;2.80;;;36.10;47.40;;;;;;5031919;28;20061;-68
2023/06/17 08:39:26;;;;;;;5.07;3.22;;;35.70;48.60;;;;;;5029185;28;20021;-68
2023/06/17 08:41:52;;;;;;;6.07;3.67;;;34.80;48.20;;;;;;5030956;28;20453;-68
2023/06/17 08:44:21;;;;;;;5.35;3.17;;;34.30;50.20;;;;;;5031767;28;20025;-67
2023/06/17 08:46:49;;;;;;;4.00;3.45;;;33.40;50.70;;;;;;5031529;28;20017;-68
2023/06/17 08:49:16;;;;;;;4.60;2.92;;;34.10;50.00;;;;;;5023095;28;20056;-67
2023/06/17 08:51:43;;;;;;;3.58;3.00;;;34.50;48.60;;;;;;5016509;28;20048;-67
2023/06/17 08:54:10;;;;;;;4.47;2.90;;;35.60;47.40;;;;;;5016403;28;20102;-67
2023/06/17 08:56:36;;;;;;;3.95;2.88;;;35.70;46.50;;;;;;5018202;28;20034;-68
2023/06/17 08:59:01;;;;;;;5.85;3.25;;;35.80;47.40;;;;;;5013475;28;20048;-67
2023/06/17 09:01:27;;;;;;;3.92;3.00;;;35.90;46.80;;;;;;5023999;28;20438;-67
2023/06/17 09:03:53;;;;;;;6.35;3.38;;;35.80;46.80;;;;;;5016325;28;20083;-67
2023/06/17 09:06:20;;;;;;;5.90;2.97;;;35.60;47.80;;;;;;5004401;28;20068;-68
2023/06/17 09:08:51;;;;;;;3.65;2.85;;;35.90;46.00;;;;;;5028132;28;20029;-68
2023/06/17 09:11:21;;;;;;;3.28;2.80;;;35.90;46.80;;;;;;5030602;28;20096;-68
2023/06/17 09:13:54;;;;;;;5.97;2.42;;;35.50;43.80;;;;;;5029284;28;20037;-68
2023/06/17 09:16:27;;;;;;;5.70;3.00;;;35.30;45.10;;;;;;5026082;28;20034;-68
2023/06/17 09:19:14;;;;;;;5.28;2.75;;;35.10;45.50;;;;;;5025944;28;20033;-68
2023/06/17 09:21:40;;;;;;;4.78;2.70;;;34.90;45.20;;;;;;5023432;28;20025;-67
2023/06/17 09:24:09;;;;;;;5.65;2.60;;;34.70;47.30;;;;;;5026780;28;20034;-67
2023/06/17 09:26:39;;;;;;;5.50;2.75;;;34.50;45.60;;;;;;5029728;28;20024;-67
2023/06/17 09:29:06;;;;;;;6.05;2.67;;;34.70;45.20;;;;;;5017715;28;20025;-67
2023/06/17 09:31:45;;;;;;;5.93;2.63;;;35.20;45.20;;;;;;5025974;28;20029;-67
2023/06/17 09:34:11;;;;;;;4.28;2.88;;;35.20;46.70;;;;;;5027512;28;20045;-67
2023/06/17 09:36:39;;;;;;;3.63;2.67;;;34.70;46.60;;;;;;5030261;28;20038;-67
2023/06/17 09:39:06;;;;;;;6.38;2.72;;;35.20;47.10;;;;;;5028861;28;20022;-67
2023/06/17 09:41:36;;;;;;;18.50;2.75;;;34.90;46.50;;;;;;5029144;28;20043;-67
2023/06/17 09:44:02;;;;;;;5.53;3.05;;;34.60;48.20;;;;;;5029886;28;20033;-66
2023/06/17 09:46:35;;;;;;;4.70;3.10;;;33.90;46.90;;;;;;5025091;28;20051;-67
2023/06/17 09:49:07;;;;;;;6.40;2.80;;;34.20;48.50;;;;;;5024831;28;20029;-66
2023/06/17 09:51:36;;;;;;;6.17;3.30;;;33.20;48.70;;;;;;5029765;28;20083;-66
2023/06/17 09:54:02;;;;;;;4.18;2.75;;;33.50;48.50;;;;;;5032220;28;20455;-65
2023/06/17 09:56:31;;;;;;;4.50;2.65;;;34.00;48.80;;;;;;5030230;28;20541;-67
2023/06/17 09:58:57;;;;;;;9.13;2.95;;;34.00;48.90;;;;;;5022734;28;20034;-66
2023/06/17 10:01:24;;;;;;;4.15;3.15;;;33.80;50.00;;;;;;5025377;28;20021;-67
2023/06/17 10:03:50;;;;;;;4.70;2.85;;;34.60;46.70;;;;;;5027638;28;20036;-67
2023/06/17 10:06:19;;;;;;;3.42;2.90;;;34.00;48.00;;;;;;5010112;28;20045;-66
2023/06/17 10:08:48;;;;;;;6.40;3.22;;;34.10;48.10;;;;;;5026996;28;20459;-66
2023/06/17 10:11:17;;;;;;;4.22;3.20;;;33.40;47.40;;;;;;5028458;28;20132;-65
2023/06/17 10:13:49;;;;;;;4.50;3.17;;;33.70;47.60;;;;;;5024891;28;20033;-65
2023/06/17 10:16:18;;;;;;;5.05;3.40;;;33.60;47.20;;;;;;5026582;28;20108;-65
2023/06/17 10:18:51;;;;;;;4.35;2.83;;;33.30;49.50;;;;;;5028183;28;20071;-66
2023/06/17 10:21:18;;;;;;;7.82;3.38;;;33.10;48.40;;;;;;5024466;28;20475;-66
2023/06/17 10:23:44;;;;;;;7.68;3.88;;;32.30;49.20;;;;;;5026483;28;20606;-67
2023/06/17 10:26:13;;;;;;;7.30;3.90;;;32.10;49.60;;;;;;5020758;28;20395;-68
2023/06/17 10:28:44;;;;;;;8.40;3.53;;;31.70;50.50;;;;;;5024507;28;20064;-68
2023/06/17 10:31:40;;;;;;;4.68;2.97;;;31.80;48.90;;;;;;5025980;28;20509;-68
2023/06/17 10:34:08;;;;;;;5.63;3.38;;;31.50;50.70;;;;;;5010334;28;20499;-68
2023/06/17 10:36:35;;;;;;;5.97;3.45;;;31.20;50.80;;;;;;5027395;28;20040;-68
2023/06/17 10:39:06;;;;;;;9.25;3.63;;;31.00;52.20;;;;;;5027739;28;21681;-68
2023/06/17 10:41:40;;;;;;;4.72;3.28;;;31.20;48.30;;;;;;5020929;28;20550;-68
2023/06/17 10:44:34;;;;;;;8.50;3.75;;;31.40;48.50;;;;;;5021486;28;20549;-68
2023/06/17 10:47:00;;;;;;;6.05;3.85;;;31.20;48.80;;;;;;5017026;28;20032;-68
2023/06/17 10:49:35;;;;;;;12.63;3.47;;;30.70;50.00;;;;;;5011059;28;20555;-68
2023/06/17 10:52:03;;;;;;;5.22;3.88;;;30.60;48.70;;;;;;5020063;28;20037;-67
2023/06/17 10:54:33;;;;;;;5.63;3.67;;;30.60;48.60;;;;;;5015378;28;20057;-68
2023/06/17 10:57:04;;;;;;;8.95;3.47;;;30.50;48.10;;;;;;5013404;28;20042;-68
2023/06/17 10:59:31;;;;;;;5.57;3.40;;;30.40;49.30;;;;;;5011036;28;20550;-68
2023/06/17 11:02:06;;;;;;;9.18;3.40;;;30.30;48.80;;;;;;5013745;28;20026;-68
2023/06/17 11:04:40;;;;;;;6.70;3.40;;;29.90;49.00;;;;;;5016633;28;20047;-68
2023/06/17 11:07:06;;;;;;;5.82;3.67;;;29.80;48.80;;;;;;5004576;28;20072;-68
2023/06/17 11:09:33;;;;;;;5.47;3.38;;;29.80;49.10;;;;;;5026957;28;20028;-68
2023/06/17 11:12:01;;;;;;;6.55;3.50;;;29.80;48.20;;;;;;5025914;28;20029;-68
2023/06/17 11:14:28;;;;;;;7.93;4.63;;;29.80;49.70;;;;;;5025876;28;20403;-68
2023/06/17 11:16:54;;;;;;;4.68;3.63;;;29.50;48.50;;;;;;5028859;28;20188;-68
2023/06/17 11:19:20;;;;;;;23.58;5.22;;;29.60;51.20;;;;;;5026919;28;20128;-68
2023/06/17 11:21:49;;;;;;;7.20;3.80;;;29.70;50.80;;;;;;5017850;28;20040;-68
2023/06/17 11:24:15;;;;;;;8.35;4.32;;;29.60;50.80;;;;;;5025043;28;20053;-68
2023/06/17 11:26:42;;;;;;;8.38;3.95;;;29.60;49.90;;;;;;5023489;28;20091;-68
2023/06/17 11:29:08;;;;;;;5.70;3.38;;;29.60;49.40;;;;;;5022077;28;20021;-69
2023/06/17 11:31:38;;;;;;;6.32;3.30;;;29.40;48.80;;;;;;5028408;28;20029;-68
2023/06/17 11:34:06;;;;;;;5.47;3.20;;;29.20;48.40;;;;;;5032139;28;20092;-67
2023/06/17 11:36:33;;;;;;;7.25;3.92;;;29.10;51.20;;;;;;5027295;28;20105;-69
2023/06/17 11:38:59;;;;;;;8.48;4.38;;;29.20;51.40;;;;;;5030904;28;20642;-67
2023/06/17 11:41:25;;;;;;;9.10;3.75;;;29.10;50.50;;;;;;5033208;28;20083;-68
2023/06/17 11:43:51;;;;;;;5.15;3.15;;;29.10;50.50;;;;;;5030520;28;20475;-67
2023/06/17 11:46:24;;;;;;;4.82;3.78;;;29.10;48.90;;;;;;5028493;28;20022;-68
2023/06/17 11:48:50;;;;;;;9.65;3.88;;;29.00;49.60;;;;;;5030617;28;20095;-68
2023/06/17 11:51:19;;;;;;;5.30;3.80;;;29.00;48.90;;;;;;5025312;28;20395;-67
2023/06/17 11:53:47;;;;;;;10.25;4.25;;;28.70;49.80;;;;;;5032611;28;20029;-67
2023/06/17 11:56:17;;;;;;;19.20;3.58;;;28.80;48.00;;;;;;5030712;28;20375;-68
2023/06/17 11:58:44;;;;;;;7.80;3.78;;;28.70;50.30;;;;;;5024880;28;20052;-67
2023/06/17 12:01:12;;;;;;;5.05;3.42;;;28.50;46.30;;;;;;5022354;28;20021;-68
2023/06/17 12:03:38;;;;;;;5.30;3.78;;;28.60;47.70;;;;;;5021053;28;20235;-68
2023/06/17 12:06:04;;;;;;;7.40;3.10;;;28.60;47.30;;;;;;5011899;28;21343;-68
2023/06/17 12:08:37;;;;;;;6.68;4.20;;;28.50;45.80;;;;;;5016033;28;20030;-68
2023/06/17 12:11:43;;;;;;;7.78;3.85;;;28.50;49.00;;;;;;5027394;28;20033;-68
2023/06/17 12:14:10;;;;;;;7.13;4.43;;;28.50;48.10;;;;;;5008170;28;20049;-68
2023/06/17 12:16:38;;;;;;;5.22;4.20;;;28.60;47.40;;;;;;5004203;28;20033;-68
2023/06/17 12:19:09;;;;;;;7.50;4.10;;;28.50;47.20;;;;;;5016592;28;20051;-68
2023/06/17 12:21:36;;;;;;;12.32;3.97;;;28.40;48.80;;;;;;5019564;28;20057;-68
2023/06/17 12:24:03;;;;;;;6.57;4.45;;;28.40;47.90;;;;;;5030576;28;20029;-68
2023/06/17 12:26:29;;;;;;;6.13;4.57;;;28.30;47.90;;;;;;5020120;28;20068;-68
2023/06/17 12:28:55;;;;;;;5.22;3.78;;;28.20;48.20;;;;;;5014466;28;20037;-68
2023/06/17 12:31:22;;;;;;;11.88;4.80;;;28.20;49.50;;;;;;5027791;28;20418;-68
2023/06/17 12:33:48;;;;;;;7.25;4.00;;;28.40;51.50;;;;;;5026392;28;20084;-67
2023/06/17 12:36:14;;;;;;;6.95;4.20;;;28.10;50.50;;;;;;5026505;28;20518;-69
2023/06/17 12:38:40;;;;;;;6.35;3.83;;;28.00;49.20;;;;;;5025594;28;20072;-68
2023/06/17 12:41:06;;;;;;;7.07;4.13;;;28.20;49.80;;;;;;5020029;28;20053;-68
2023/06/17 12:43:32;;;;;;;10.88;3.60;;;28.30;47.60;;;;;;5019964;28;20491;-67
2023/06/17 12:45:59;;;;;;;4.28;3.33;;;28.40;47.20;;;;;;5026830;28;20038;-68